Upstream stations:
Downstream station:
SHEF ID: CDNT2 Canadian Rv nr Canadian, TX
STATION TYPE:
Regulating: Stage = 8.00, Flow = 5231
PRECIP STAGE RIV-FLOW BAT-LOAD
in ft cfs volt
Ccp-Rev Ccp-Rev Ccp-Rev Ccp-Rev
(US/Central)
03/23 00:00 ---- 2.16 168 12.17
03/23 01:00 ---- 2.20 172 12.17
03/23 02:00 ---- 2.21 173 12.17
03/23 03:00 ---- 2.30 184 12.17
03/23 04:00 ---- 2.32 186 12.17
03/23 05:00 ---- 2.33 188 12.17
03/23 06:00 ---- 2.34 189 12.17
03/23 07:00 ---- 2.36 191 12.09
03/23 08:00 ---- 2.33 188 12.17
03/23 09:00 ---- 2.35 190 12.17
03/23 10:00 ---- 2.42 198 12.25
03/23 11:00 ---- 2.41 197 12.33
03/23 12:00 ---- 2.43 200 12.41
03/23 13:00 ---- 2.40 196 12.41
03/23 14:00 ---- 2.42 198 12.49
03/23 15:00 ---- 2.40 196 12.65
03/23 16:00 ---- 2.43 200 12.73
03/23 17:00 ---- 2.39 195 12.65
03/23 18:00 ---- 2.41 197 12.49
03/23 19:00 ---- 2.43 200 12.49
03/23 20:00 ---- 2.41 197 12.41
03/23 21:00 ---- 2.38 194 12.41
03/23 22:00 ---- 2.40 196 12.33
03/23 23:00 ---- ---- ---- ----